createdAt,value
2018-05-04T00:02:02.126Z,10.95
2018-05-04T00:05:32.690Z,10.96
2018-05-04T00:08:37.938Z,10.67
2018-05-04T00:11:46.156Z,10.90
2018-05-04T00:14:53.011Z,10.81
2018-05-04T00:17:55.652Z,10.70
2018-05-04T00:20:59.507Z,10.71
2018-05-04T00:24:02.733Z,10.56
2018-05-04T00:27:06.531Z,10.65
2018-05-04T00:30:09.110Z,10.52
2018-05-04T00:33:23.540Z,10.75
2018-05-04T00:36:33.801Z,10.61
2018-05-04T00:39:36.625Z,10.63
2018-05-04T00:42:40.327Z,10.60
2018-05-04T00:45:45.262Z,10.64
2018-05-04T00:48:50.908Z,10.54
2018-05-04T00:51:54.063Z,10.34
2018-05-04T00:54:57.429Z,10.32
2018-05-04T00:58:00.880Z,10.22
2018-05-04T01:01:03.442Z,10.06
2018-05-04T01:04:06.117Z,10.06
2018-05-04T01:07:08.692Z,10.15
2018-05-04T01:10:11.293Z,10.08
2018-05-04T01:13:13.818Z,9.91
2018-05-04T01:16:16.324Z,10.06
2018-05-04T01:19:18.857Z,10.00
2018-05-04T01:22:21.453Z,9.93
2018-05-04T01:25:23.968Z,9.92
2018-05-04T01:28:26.536Z,9.96
2018-05-04T01:31:29.046Z,9.80
2018-05-04T01:34:33.102Z,9.86
2018-05-04T01:37:35.595Z,9.68
2018-05-04T01:40:38.161Z,9.88
2018-05-04T01:43:40.674Z,9.81
2018-05-04T01:46:43.233Z,9.65
2018-05-04T01:49:45.792Z,9.64
2018-05-04T01:52:48.390Z,9.80
2018-05-04T01:55:50.914Z,9.67
2018-05-04T01:58:53.481Z,9.61
2018-05-04T02:01:56.000Z,9.46
2018-05-04T02:04:58.927Z,9.46
2018-05-04T02:08:01.479Z,9.51
2018-05-04T02:11:04.158Z,9.25
2018-05-04T02:14:06.665Z,9.64
2018-05-04T02:17:09.181Z,9.64
2018-05-04T02:20:11.708Z,9.49
2018-05-04T02:23:20.557Z,9.38
2018-05-04T02:26:23.149Z,9.43
2018-05-04T02:29:25.745Z,9.30
2018-05-04T02:32:28.278Z,9.33
2018-05-04T02:35:30.847Z,9.31
2018-05-04T02:38:33.338Z,9.22
2018-05-04T02:41:35.945Z,9.20
2018-05-04T02:44:38.505Z,9.03
2018-05-04T02:47:41.084Z,8.84
2018-05-04T02:50:43.640Z,8.93
2018-05-04T02:53:46.186Z,8.84
2018-05-04T02:56:48.711Z,8.75
2018-05-04T02:59:51.274Z,8.95
2018-05-04T03:02:53.775Z,9.00
2018-05-04T03:05:56.334Z,8.85
2018-05-04T03:08:58.970Z,8.74
2018-05-04T03:12:01.510Z,8.91
2018-05-04T03:15:04.025Z,8.93
2018-05-04T03:18:06.772Z,8.88
2018-05-04T03:21:09.342Z,8.74
2018-05-04T03:24:11.841Z,8.66
2018-05-04T03:27:14.709Z,8.81
2018-05-04T03:30:17.233Z,8.83
2018-05-04T03:33:19.791Z,8.77
2018-05-04T03:36:22.353Z,8.79
2018-05-04T03:39:24.901Z,8.76
2018-05-04T03:42:27.463Z,8.79
2018-05-04T03:45:30.024Z,8.61
2018-05-04T03:48:32.573Z,8.43
2018-05-04T03:51:35.380Z,8.52
2018-05-04T03:54:37.945Z,8.53
2018-05-04T03:57:52.333Z,8.72
2018-05-04T04:01:06.605Z,8.67
2018-05-04T04:04:12.714Z,8.60
2018-05-04T04:07:15.241Z,8.79
2018-05-04T04:10:17.767Z,8.68
2018-05-04T04:13:20.309Z,8.88
2018-05-04T04:16:23.555Z,8.72
2018-05-04T04:19:26.123Z,8.79
2018-05-04T04:22:28.636Z,8.69
2018-05-04T04:25:31.218Z,8.69
2018-05-04T04:28:33.773Z,8.79
2018-05-04T04:31:36.371Z,8.87
2018-05-04T04:34:39.152Z,9.06
2018-05-04T04:37:41.754Z,9.24
2018-05-04T04:40:45.025Z,9.51
2018-05-04T04:43:48.615Z,9.39
2018-05-04T04:46:51.171Z,9.30
2018-05-04T04:49:54.469Z,9.31
2018-05-04T04:52:56.966Z,9.38
2018-05-04T04:55:59.463Z,9.41
2018-05-04T04:59:01.942Z,9.41
2018-05-04T05:02:04.480Z,9.38
2018-05-04T05:05:07.035Z,9.49
2018-05-04T05:08:09.691Z,9.55
2018-05-04T05:11:12.234Z,9.47
2018-05-04T05:14:14.747Z,9.60
2018-05-04T05:17:17.393Z,9.74
2018-05-04T05:20:19.950Z,9.77
2018-05-04T05:23:23.238Z,9.80
2018-05-04T05:26:27.045Z,10.02
2018-05-04T05:29:29.610Z,10.11
2018-05-04T05:32:32.081Z,10.07
2018-05-04T05:35:34.653Z,9.88
2018-05-04T05:38:37.148Z,9.98
2018-05-04T05:41:39.709Z,10.19
2018-05-04T05:44:42.280Z,10.31
2018-05-04T05:47:44.861Z,10.31
2018-05-04T05:50:47.417Z,10.67
2018-05-04T05:53:49.985Z,10.80
2018-05-04T05:56:52.492Z,10.80
2018-05-04T05:59:55.018Z,10.87
2018-05-04T06:02:57.508Z,10.77
2018-05-04T06:06:00.030Z,10.81
2018-05-04T06:09:02.521Z,10.75
2018-05-04T06:12:05.021Z,10.69
2018-05-04T06:15:07.606Z,10.79
2018-05-04T06:18:10.050Z,10.84
2018-05-04T06:21:12.531Z,10.82
2018-05-04T06:24:15.040Z,10.86
2018-05-04T06:27:17.540Z,10.92
2018-05-04T06:30:20.098Z,11.02
2018-05-04T06:33:22.609Z,11.08
2018-05-04T06:36:25.105Z,11.23
2018-05-04T06:39:27.638Z,11.26
2018-05-04T06:42:30.145Z,11.38
2018-05-04T06:45:32.675Z,11.43
2018-05-04T06:48:35.258Z,11.47
2018-05-04T06:51:37.756Z,11.48
2018-05-04T06:54:40.313Z,11.66
2018-05-04T06:57:42.885Z,11.87
2018-05-04T07:00:45.383Z,12.05
2018-05-04T07:03:48.701Z,12.21
2018-05-04T07:06:51.216Z,12.36
2018-05-04T07:09:53.797Z,12.45
2018-05-04T07:20:14.728Z,12.94
2018-05-04T07:23:17.227Z,13.09
2018-05-04T07:26:19.733Z,13.35
2018-05-04T07:29:22.317Z,13.52
2018-05-04T07:32:24.828Z,13.52
2018-05-04T07:35:27.328Z,13.58
2018-05-04T07:38:30.383Z,13.74
2018-05-04T07:41:34.651Z,14.04
2018-05-04T07:44:37.180Z,14.08
2018-05-04T07:47:40.183Z,14.17
2018-05-04T07:50:42.760Z,14.39
2018-05-04T07:53:45.381Z,14.67
2018-05-04T07:56:48.611Z,15.01
2018-05-04T07:59:51.590Z,14.71
2018-05-04T08:02:55.103Z,14.64
2018-05-04T08:05:57.607Z,15.14
2018-05-04T08:09:00.117Z,14.91
2018-05-04T08:12:02.696Z,15.10
2018-05-04T08:15:06.177Z,15.46
2018-05-04T08:18:09.118Z,15.53
2018-05-04T08:21:11.863Z,15.14
2018-05-04T08:24:15.176Z,15.54
2018-05-04T08:27:17.845Z,15.87
2018-05-04T08:30:20.385Z,15.61
2018-05-04T08:33:23.497Z,15.87
2018-05-04T08:36:26.125Z,16.23
2018-05-04T08:39:28.641Z,16.24
2018-05-04T08:42:31.275Z,16.52
2018-05-04T08:45:33.821Z,16.81
2018-05-04T08:48:36.387Z,17.15
2018-05-04T08:51:38.929Z,17.33
2018-05-04T08:54:41.466Z,17.45
2018-05-04T08:57:43.971Z,17.48
2018-05-04T09:00:46.517Z,17.75
2018-05-04T09:03:49.014Z,18.19
2018-05-04T09:06:51.721Z,18.34
2018-05-04T09:09:54.549Z,18.10
2018-05-04T09:16:04.315Z,18.25
2018-05-04T09:19:06.915Z,18.76
2018-05-04T09:22:11.935Z,18.90
2018-05-04T09:25:15.477Z,18.14
2018-05-04T09:28:18.579Z,18.26
2018-05-04T09:31:22.177Z,18.55
2018-05-04T09:34:24.766Z,18.80
2018-05-04T09:37:28.320Z,18.78
2018-05-04T09:40:31.710Z,18.67
2018-05-04T09:43:34.318Z,19.20
2018-05-04T09:46:36.867Z,19.24
2018-05-04T09:49:40.385Z,19.29
2018-05-04T09:52:42.885Z,19.69
2018-05-04T09:55:49.151Z,19.85
2018-05-04T09:58:51.743Z,20.10
2018-05-04T10:01:55.362Z,20.13
2018-05-04T10:04:57.929Z,19.43
2018-05-04T10:08:00.438Z,19.17
2018-05-04T10:11:02.988Z,19.88
2018-05-04T10:14:05.469Z,19.83
2018-05-04T10:17:07.956Z,19.81
2018-05-04T10:20:10.474Z,20.35
2018-05-04T10:23:12.999Z,20.64
2018-05-04T10:26:15.565Z,20.52
2018-05-04T10:29:18.107Z,20.74
2018-05-04T10:36:02.338Z,20.67
2018-05-04T10:39:05.024Z,21.11
2018-05-04T10:42:07.539Z,21.17
2018-05-04T10:45:10.765Z,21.64
2018-05-04T10:48:13.256Z,21.70
2018-05-04T10:51:15.824Z,21.88
2018-05-04T10:54:18.331Z,21.33
2018-05-04T10:57:20.830Z,21.98
2018-05-04T11:00:23.387Z,21.81
2018-05-04T11:03:26.002Z,22.16
2018-05-04T11:06:28.564Z,21.60
2018-05-04T11:09:31.088Z,22.17
2018-05-04T11:12:33.595Z,21.96
2018-05-04T11:15:36.135Z,21.53
2018-05-04T11:18:38.656Z,21.84
2018-05-04T11:21:41.242Z,22.28
2018-05-04T11:24:43.773Z,22.72
2018-05-04T11:27:46.299Z,22.70
2018-05-04T11:30:54.501Z,22.96
2018-05-04T11:33:57.038Z,21.72
2018-05-04T11:36:59.583Z,22.09
2018-05-04T11:40:02.142Z,22.45
2018-05-04T11:43:04.648Z,22.97
2018-05-04T11:46:07.204Z,23.33
2018-05-04T11:49:09.807Z,22.94
2018-05-04T11:52:13.222Z,22.96
2018-05-04T11:55:15.809Z,22.28
2018-05-04T11:58:18.343Z,23.16
2018-05-04T12:01:20.925Z,23.24
2018-05-04T12:04:30.083Z,23.42
2018-05-04T12:07:32.771Z,23.07
2018-05-04T12:10:35.325Z,22.68
2018-05-04T12:13:37.836Z,23.79
2018-05-04T12:16:40.369Z,22.73
2018-05-04T12:19:42.910Z,22.31
2018-05-04T12:22:45.543Z,23.01
2018-05-04T12:25:48.198Z,23.46
2018-05-04T12:28:50.806Z,23.34
2018-05-04T12:31:53.363Z,22.69
2018-05-04T12:34:55.896Z,23.27
2018-05-04T12:37:58.555Z,22.27
2018-05-04T12:41:01.145Z,23.49
2018-05-04T12:44:17.051Z,22.76
2018-05-04T12:47:19.715Z,23.16
2018-05-04T12:50:22.815Z,23.27
2018-05-04T12:53:26.222Z,23.24
2018-05-04T12:56:28.690Z,23.18
2018-05-04T12:59:32.516Z,23.42
2018-05-04T13:02:35.006Z,23.27
2018-05-04T13:05:40.266Z,23.14
2018-05-04T13:08:43.538Z,23.31
2018-05-04T13:11:46.065Z,24.01
2018-05-04T13:14:48.732Z,23.38
2018-05-04T13:17:51.336Z,23.29
2018-05-04T13:20:53.872Z,23.75
2018-05-04T13:23:57.834Z,23.64
2018-05-04T13:27:00.630Z,24.20
2018-05-04T13:30:04.359Z,24.30
2018-05-04T13:33:06.929Z,23.41
2018-05-04T13:36:09.628Z,23.42
2018-05-04T13:39:12.210Z,23.12
2018-05-04T13:42:14.768Z,23.17
2018-05-04T13:45:17.346Z,23.51
2018-05-04T13:48:19.898Z,23.46
2018-05-04T13:51:23.308Z,23.62
2018-05-04T13:54:27.428Z,24.11
2018-05-04T13:57:31.224Z,23.81
2018-05-04T14:00:37.270Z,22.89
2018-05-04T14:03:40.865Z,23.43
2018-05-04T14:06:43.449Z,22.54
2018-05-04T14:09:45.998Z,22.62
2018-05-04T14:12:48.750Z,22.63
2018-05-04T14:15:51.404Z,22.68
2018-05-04T14:18:53.957Z,22.76
2018-05-04T14:21:56.558Z,23.17
2018-05-04T14:24:59.128Z,23.02
2018-05-04T14:28:01.690Z,23.12
2018-05-04T14:31:05.351Z,23.73
2018-05-04T14:34:07.993Z,23.43
2018-05-04T14:37:10.641Z,23.34
2018-05-04T14:40:13.169Z,23.01
2018-05-04T14:43:16.896Z,23.24
2018-05-04T14:46:19.577Z,23.53
2018-05-04T14:49:22.151Z,23.40
2018-05-04T14:52:26.459Z,23.84
2018-05-04T14:55:29.110Z,22.66
2018-05-04T14:58:31.720Z,22.34
2018-05-04T15:01:34.265Z,22.24
2018-05-04T15:04:36.784Z,22.59
2018-05-04T15:07:39.384Z,22.67
2018-05-04T15:10:41.922Z,22.85
2018-05-04T15:13:45.192Z,22.74
2018-05-04T15:16:47.771Z,22.23
2018-05-04T15:19:50.286Z,22.36
2018-05-04T15:22:53.383Z,22.71
2018-05-04T15:25:55.977Z,22.82
2018-05-04T15:28:58.568Z,22.46
2018-05-04T15:32:03.396Z,22.33
2018-05-04T15:35:05.915Z,22.32
2018-05-04T15:38:09.362Z,22.62
2018-05-04T15:41:13.236Z,22.46
2018-05-04T15:44:16.224Z,22.42
2018-05-04T15:47:18.945Z,22.59
2018-05-04T15:50:27.003Z,21.98
2018-05-04T15:53:30.280Z,21.89
2018-05-04T15:56:32.898Z,21.77
2018-05-04T15:59:35.392Z,22.10
2018-05-04T16:02:37.937Z,21.87
2018-05-04T16:05:40.534Z,21.78
2018-05-04T16:08:46.287Z,21.02
2018-05-04T16:11:51.638Z,20.97
2018-05-04T16:14:54.255Z,20.99
2018-05-04T16:17:56.887Z,20.71
2018-05-04T16:20:59.439Z,20.46
2018-05-04T16:24:03.706Z,20.31
2018-05-04T16:27:07.403Z,20.42
2018-05-04T16:30:11.578Z,20.16
2018-05-04T16:33:14.233Z,20.02
2018-05-04T16:36:22.494Z,19.73
2018-05-04T16:39:25.238Z,19.83
2018-05-04T16:42:27.805Z,19.83
2018-05-04T16:45:30.986Z,19.68
2018-05-04T16:48:39.202Z,20.12
2018-05-04T16:51:42.046Z,19.73
2018-05-04T16:54:45.372Z,19.39
2018-05-04T16:57:49.764Z,19.17
2018-05-04T17:00:52.353Z,19.40
2018-05-04T17:03:54.983Z,19.12
2018-05-04T17:06:57.810Z,19.09
2018-05-04T17:10:00.786Z,19.02
2018-05-04T17:13:03.635Z,18.92
2018-05-04T17:16:06.386Z,19.06
2018-05-04T17:19:11.862Z,19.09
2018-05-04T17:22:15.350Z,18.81
2018-05-04T17:25:20.269Z,18.78
2018-05-04T17:28:22.974Z,18.53
2018-05-04T17:31:25.586Z,18.20
2018-05-04T17:34:28.143Z,18.17
2018-05-04T17:37:30.721Z,18.26
2018-05-04T17:40:33.609Z,18.13
2018-05-04T17:43:37.900Z,18.37
2018-05-04T17:46:54.415Z,18.00
2018-05-04T17:50:06.012Z,17.81
2018-05-04T17:53:19.070Z,18.10
2018-05-04T17:56:32.564Z,18.10
2018-05-04T17:59:36.534Z,18.04
2018-05-04T18:02:42.239Z,17.72
2018-05-04T18:05:45.120Z,18.02
2018-05-04T18:08:49.080Z,17.93
2018-05-04T18:11:51.787Z,17.94
2018-05-04T18:14:54.388Z,18.05
2018-05-04T18:17:57.320Z,17.78
2018-05-04T18:21:00.064Z,17.67
2018-05-04T18:24:02.866Z,17.83
2018-05-04T18:27:05.531Z,17.82
2018-05-04T18:30:08.323Z,17.73
2018-05-04T18:33:11.970Z,17.42
2018-05-04T18:36:15.545Z,17.51
2018-05-04T18:39:18.383Z,17.44
2018-05-04T18:42:29.272Z,17.20
2018-05-04T18:45:32.864Z,17.12
2018-05-04T18:48:35.555Z,17.30
2018-05-04T18:51:39.582Z,16.64
2018-05-04T18:54:42.453Z,16.98
2018-05-04T18:57:45.203Z,16.83
2018-05-04T19:00:47.921Z,16.85
2018-05-04T19:03:51.532Z,16.63
2018-05-04T19:06:55.101Z,16.58
2018-05-04T19:09:57.725Z,16.73
2018-05-04T19:13:00.312Z,16.80
2018-05-04T19:16:04.252Z,16.70
2018-05-04T19:22:37.940Z,16.33
2018-05-04T19:25:47.068Z,16.01
2018-05-04T19:28:50.888Z,16.08
2018-05-04T19:31:57.575Z,16.23
2018-05-04T19:35:01.873Z,16.16
2018-05-04T19:41:35.906Z,16.01
2018-05-04T19:45:04.227Z,15.96
2018-05-04T19:48:10.010Z,15.79
2018-05-04T19:51:20.262Z,15.80
2018-05-04T19:54:22.941Z,15.72
2018-05-04T19:57:25.594Z,15.27
2018-05-04T20:00:45.407Z,15.45
2018-05-04T20:04:01.698Z,15.48
2018-05-04T20:07:06.851Z,15.39
2018-05-04T20:15:09.212Z,15.12
2018-05-04T20:18:15.760Z,15.23
2018-05-04T20:21:34.191Z,14.63
2018-05-04T20:24:44.022Z,14.92
2018-05-04T20:27:46.660Z,14.85
2018-05-04T20:30:50.908Z,14.65
2018-05-04T20:33:53.561Z,14.53
2018-05-04T20:36:56.500Z,14.58
2018-05-04T20:40:06.084Z,14.59
2018-05-04T20:43:08.766Z,14.47
2018-05-04T20:46:11.367Z,14.62
2018-05-04T20:49:13.967Z,14.41
2018-05-04T20:52:17.672Z,14.48
2018-05-04T20:55:20.238Z,14.34
2018-05-04T20:58:22.831Z,14.04
2018-05-04T21:01:25.459Z,14.13
2018-05-04T21:04:28.110Z,14.08
2018-05-04T21:07:30.711Z,14.00
2018-05-04T21:10:33.295Z,13.89
2018-05-04T21:13:35.842Z,13.77
2018-05-04T21:16:38.510Z,13.78
2018-05-04T21:19:41.040Z,13.92
2018-05-04T21:22:43.712Z,13.55
2018-05-04T21:25:46.291Z,13.93
2018-05-04T21:28:48.946Z,13.67
2018-05-04T21:31:51.623Z,13.49
2018-05-04T21:34:54.135Z,13.38
2018-05-04T21:37:56.702Z,13.57
2018-05-04T21:40:59.278Z,13.33
2018-05-04T21:44:01.886Z,13.42
2018-05-04T21:47:04.510Z,13.63
2018-05-04T21:50:07.082Z,13.51
2018-05-04T21:53:09.717Z,13.37
2018-05-04T21:56:12.845Z,13.34
2018-05-04T21:59:15.544Z,13.14
2018-05-04T22:02:18.090Z,13.38
2018-05-04T22:05:21.234Z,13.21
2018-05-04T22:08:23.960Z,13.04
2018-05-04T22:11:28.958Z,13.10
2018-05-04T22:14:36.944Z,13.06
2018-05-04T22:17:40.706Z,12.23
2018-05-04T22:20:43.262Z,12.74
2018-05-04T22:23:45.905Z,12.89
2018-05-04T22:26:48.734Z,12.64
2018-05-04T22:29:51.319Z,12.68
2018-05-04T22:32:53.907Z,12.46
2018-05-04T22:35:57.700Z,12.38
2018-05-04T22:39:00.480Z,12.30
2018-05-04T22:42:04.321Z,12.14
2018-05-04T22:45:07.253Z,12.25
2018-05-04T22:48:09.816Z,12.06
2018-05-04T22:51:13.561Z,12.23
2018-05-04T22:54:16.199Z,12.08
2018-05-04T22:57:20.856Z,11.95
2018-05-04T23:00:23.448Z,11.79
2018-05-04T23:03:26.103Z,11.55
2018-05-04T23:06:28.667Z,11.56
2018-05-04T23:09:32.331Z,11.55
2018-05-04T23:12:35.030Z,11.44
2018-05-04T23:15:39.451Z,10.99
2018-05-04T23:18:42.073Z,11.19
2018-05-04T23:21:44.724Z,11.33
2018-05-04T23:24:48.178Z,11.29
2018-05-04T23:27:50.749Z,11.30
2018-05-04T23:30:53.434Z,11.18
2018-05-04T23:33:55.928Z,11.11
2018-05-04T23:37:02.848Z,10.89
2018-05-04T23:40:05.402Z,10.82
2018-05-04T23:43:07.876Z,11.05
2018-05-04T23:46:10.430Z,11.00
2018-05-04T23:49:12.968Z,10.81
2018-05-04T23:52:15.581Z,10.56
2018-05-04T23:55:19.314Z,10.75
2018-05-04T23:58:22.828Z,10.54
